.
WxDataArchive / Data Records for 2013-12-27
2013-12-26 December 2013 2013-12-28

Data Records for Friday, 27 December 2013

Time	Temp	Chill	HIndex	Humid	Dewpt	 Wind 	HiWind	WindDir	Rain 	Barom 
-----	----	-----	------	-----	-----	------	------	-------	-----	----- 
00:00	32.5	32.5	32.5	68	23.1	0	3	248	0.00	30.270 
00:05	32.4	32.4	32.4	68	23.0	0	3	248	0.00	30.270 
00:10	32.5	32.5	32.5	68	23.1	1	3	248	0.00	30.270 
00:15	32.5	32.5	32.5	68	23.1	0	3	248	0.00	30.266 
00:20	32.5	32.5	32.5	68	23.1	0	2	248	0.00	30.266 
00:25	32.5	32.5	32.5	67	22.8	1	5	248	0.00	30.266 
00:30	32.7	32.7	32.7	67	23.0	1	3	248	0.00	30.263 
00:35	32.8	32.8	32.8	67	23.1	1	5	248	0.00	30.263 
00:40	32.8	32.8	32.8	66	22.7	0	2	248	0.00	30.263 
00:45	32.8	32.8	32.8	66	22.7	1	4	248	0.00	30.259 
00:50	32.9	32.9	32.9	66	22.8	1	5	248	0.00	30.259 
00:55	32.9	32.9	32.9	66	22.8	0	2	248	0.00	30.259 
01:00	32.9	32.9	32.9	66	22.8	0	3	248	0.00	30.251 
01:05	32.9	32.9	32.9	66	22.8	1	3	248	0.00	30.251 
01:10	33.1	33.1	33.1	66	23.0	0	3	248	0.00	30.251 
01:15	33.1	33.1	33.1	66	23.0	1	3	248	0.00	30.248 
01:20	33.1	33.1	33.1	66	23.0	0	3	248	0.00	30.248 
01:25	33.1	33.1	33.1	66	23.0	0	3	248	0.00	30.248 
01:30	33.2	33.2	33.2	66	23.1	1	3	248	0.00	30.249 
01:35	33.2	33.2	33.2	66	23.1	1	3	248	0.00	30.249 
01:40	33.4	33.4	33.4	66	23.3	0	3	248	0.00	30.249 
01:45	33.4	33.4	33.4	66	23.3	0	2	248	0.00	30.249 
01:50	33.4	33.4	33.4	66	23.3	0	4	248	0.00	30.249 
01:55	33.4	33.4	33.4	67	23.6	1	4	248	0.00	30.249 
02:00	33.5	33.5	33.5	66	23.4	1	4	248	0.00	30.249 
02:05	33.5	33.5	33.5	66	23.4	1	3	248	0.00	30.249 
02:10	33.5	33.5	33.5	66	23.4	1	4	248	0.00	30.249 
02:15	33.5	33.5	33.5	66	23.4	0	2	248	0.00	30.248 
02:20	33.5	33.5	33.5	67	23.7	1	3	248	0.00	30.248 
02:25	33.5	33.5	33.5	67	23.7	1	4	248	0.00	30.248 
02:30	33.7	33.7	33.7	67	23.9	1	3	248	0.00	30.246 
02:35	33.7	33.7	33.7	67	23.9	1	4	248	0.00	30.246 
02:40	33.5	33.5	33.5	67	23.7	1	4	248	0.00	30.246 
02:45	33.5	33.5	33.5	67	23.7	0	3	248	0.00	30.251 
02:50	33.5	33.5	33.5	67	23.7	1	4	248	0.00	30.251 
02:55	33.5	33.5	33.5	67	23.7	1	5	248	0.00	30.251 
03:00	33.7	33.7	33.7	67	23.9	1	3	248	0.00	30.248 
03:05	33.7	33.7	33.7	67	23.9	0	3	248	0.00	30.248 
03:10	33.7	33.7	33.7	67	23.9	1	4	248	0.00	30.248 
03:15	33.8	33.8	33.8	67	24.0	0	2	248	0.00	30.251 
03:20	33.8	33.8	33.8	67	24.0	0	5	248	0.00	30.251 
03:25	33.8	33.8	33.8	67	24.0	1	4	248	0.00	30.251 
03:30	33.8	33.8	33.8	67	24.0	1	5	248	0.00	30.254 
03:35	34.0	34.0	34.0	67	24.2	1	3	248	0.00	30.254 
03:40	34.0	34.0	34.0	66	23.9	1	3	248	0.00	30.254 
03:45	34.0	34.0	34.0	66	23.9	1	3	248	0.00	30.252 
03:50	34.0	34.0	34.0	66	23.9	1	4	248	0.00	30.252 
03:55	34.1	34.1	34.1	66	23.9	1	5	248	0.00	30.252 
04:00	34.1	34.1	34.1	66	23.9	1	5	248	0.00	30.254 
04:05	34.1	34.1	34.1	66	23.9	1	3	248	0.00	30.254 
04:10	34.1	34.1	34.1	66	23.9	0	4	248	0.00	30.254 
04:15	34.1	34.1	34.1	66	23.9	0	3	248	0.00	30.251 
04:20	34.1	34.1	34.1	67	24.3	1	3	248	0.00	30.251 
04:25	34.1	34.1	34.1	67	24.3	0	2	248	0.00	30.251 
04:30	34.1	34.1	34.1	67	24.3	0	3	248	0.00	30.252 
04:35	34.1	34.1	34.1	67	24.3	0	3	248	0.00	30.252 
04:40	34.3	34.3	34.3	67	24.5	1	2	248	0.00	30.252 
04:45	34.3	34.3	34.3	67	24.5	1	2	248	0.00	30.251 
04:50	34.3	34.3	34.3	67	24.5	1	5	248	0.00	30.251 
04:55	34.3	34.3	34.3	67	24.5	1	5	248	0.00	30.251 
05:00	34.3	34.3	34.3	67	24.5	0	3	248	0.00	30.258 
05:05	34.3	34.3	34.3	67	24.5	1	3	248	0.00	30.258 
05:10	34.3	34.3	34.3	68	24.9	1	2	248	0.00	30.258 
05:15	34.1	34.1	34.1	68	24.7	1	4	248	0.00	30.257 
05:20	34.1	34.1	34.1	68	24.7	1	4	248	0.00	30.257 
05:25	34.1	34.1	34.1	68	24.7	1	4	248	0.00	30.257 
05:30	34.1	34.1	34.1	68	24.7	1	4	248	0.00	30.260 
05:35	34.1	34.1	34.1	68	24.7	1	4	248	0.00	30.260 
05:40	34.0	34.0	34.0	69	24.9	0	3	248	0.00	30.260 
05:45	34.0	34.0	34.0	69	24.9	1	4	248	0.00	30.259 
05:50	34.0	34.0	34.0	69	24.9	0	2	248	0.00	30.259 
05:55	33.7	33.7	33.7	69	24.6	1	3	248	0.00	30.259 
06:00	33.7	33.7	33.7	70	25.0	0	3	248	0.00	30.263 
06:05	33.5	33.5	33.5	70	24.8	1	3	248	0.00	30.263 
06:10	33.4	33.4	33.4	71	25.0	0	2	248	0.00	30.263 
06:15	33.4	33.4	33.4	71	25.0	1	3	248	0.00	30.266 
06:20	33.4	33.4	33.4	71	25.0	0	3	248	0.00	30.266 
06:25	33.2	33.2	33.2	71	24.8	0	2	248	0.00	30.266 
06:30	33.2	33.2	33.2	71	24.8	0	3	248	0.00	30.268 
06:35	33.1	33.1	33.1	72	25.1	1	5	248	0.00	30.268 
06:40	33.1	33.1	33.1	72	25.1	1	3	248	0.00	30.268 
06:45	33.1	33.1	33.1	72	25.1	0	2	248	0.00	30.275 
06:50	32.9	32.9	32.9	72	24.9	0	3	248	0.00	30.275 
06:55	32.8	32.8	32.8	72	24.8	0	2	248	0.00	30.275 
07:00	32.7	32.7	32.7	73	25.0	0	3	248	0.00	30.277 
07:05	32.5	32.5	32.5	73	24.8	0	2	248	0.00	30.277 
07:10	32.4	32.4	32.4	73	24.7	0	2	248	0.00	30.277 
07:15	32.1	32.1	32.1	73	24.4	0	1	248	0.00	30.281 
07:20	31.9	31.9	31.9	74	24.6	0	1	248	0.00	30.281 
07:25	31.6	31.6	31.6	74	24.3	0	2	248	0.00	30.281 
07:30	31.5	31.5	31.5	75	24.5	0	1	248	0.00	30.293 
07:35	31.3	31.3	31.3	75	24.3	0	1	248	0.00	30.293 
07:40	31.0	31.0	31.0	76	24.3	0	1	248	0.00	30.293 
07:45	30.9	30.9	30.9	76	24.2	0	0	---	0.00	30.299 
07:50	30.7	30.7	30.7	77	24.4	0	1	248	0.00	30.299 
07:55	30.6	30.6	30.6	77	24.3	0	0	---	0.00	30.299 
08:00	30.4	30.4	30.4	77	24.1	0	2	248	0.00	30.313 
08:05	30.3	30.3	30.3	77	24.0	0	0	---	0.00	30.313 
08:10	30.3	30.3	30.3	78	24.3	0	1	248	0.00	30.313 
08:15	30.1	30.1	30.1	78	24.1	0	1	248	0.00	30.318 
08:20	30.1	30.1	30.1	78	24.1	0	0	---	0.00	30.318 
08:25	30.0	30.0	30.0	79	24.3	0	0	---	0.00	30.318 
08:30	30.0	30.0	30.0	79	24.3	0	0	---	0.00	30.326 
08:35	30.0	30.0	30.0	79	24.3	0	0	---	0.00	30.326 
08:40	30.0	30.0	30.0	79	24.3	0	0	---	0.00	30.326 
08:45	30.0	30.0	30.0	80	24.6	0	1	248	0.00	30.332 
08:50	30.0	30.0	30.0	80	24.6	0	2	248	0.00	30.332 
08:55	30.3	30.3	30.3	80	24.9	0	2	248	0.00	30.332 
09:00	30.6	30.6	30.6	79	24.9	0	1	248	0.00	30.334 
09:05	30.9	30.9	30.9	79	25.2	0	2	248	0.00	30.334 
09:10	31.0	31.0	31.0	79	25.3	0	2	248	0.00	30.334 
09:15	31.2	31.2	31.2	78	25.2	0	1	248	0.00	30.341 
09:20	31.5	31.5	31.5	78	25.4	0	2	248	0.00	30.341 
09:25	31.8	31.8	31.8	78	25.7	0	2	248	0.00	30.341 
09:30	31.9	31.9	31.9	77	25.5	1	3	248	0.00	30.342 
09:35	32.2	32.2	32.2	77	25.8	0	3	248	0.00	30.342 
09:40	32.4	32.4	32.4	77	26.0	0	3	248	0.00	30.342 
09:45	32.7	32.7	32.7	76	26.0	0	2	248	0.00	30.340 
09:50	32.8	32.8	32.8	75	25.8	1	3	248	0.00	30.340 
09:55	33.1	33.1	33.1	75	26.1	1	4	248	0.00	30.340 
10:00	33.2	33.2	33.2	75	26.2	0	2	248	0.00	30.339 
10:05	33.5	33.5	33.5	74	26.1	0	3	248	0.00	30.339 
10:10	33.7	33.7	33.7	74	26.3	0	1	248	0.00	30.339 
10:15	33.8	33.8	33.8	74	26.4	0	2	248	0.00	30.335 
10:20	34.0	34.0	34.0	73	26.3	0	3	248	0.00	30.335 
10:25	34.1	34.1	34.1	73	26.4	0	2	248	0.00	30.335 
10:30	34.3	34.3	34.3	73	26.6	0	2	248	0.00	30.335 
10:35	34.4	34.4	34.4	72	26.3	1	3	248	0.00	30.335 
10:40	34.7	34.7	34.7	72	26.6	1	3	248	0.00	30.335 
10:45	34.9	34.9	34.9	72	26.8	0	2	248	0.00	30.338 
10:50	35.0	35.0	35.0	72	26.9	0	3	248	0.00	30.338 
10:55	35.2	35.2	35.2	72	27.1	0	1	248	0.00	30.338 
11:00	35.3	35.3	35.3	71	26.9	0	2	248	0.00	30.337 
11:05	35.6	35.6	35.6	71	27.1	0	2	248	0.00	30.337 
11:10	35.6	35.6	35.6	71	27.1	1	3	248	0.00	30.337 
11:15	35.8	35.8	35.8	71	27.3	0	2	248	0.00	30.333 
11:20	36.0	36.0	36.0	71	27.5	0	2	248	0.00	30.333 
11:25	36.2	36.2	36.2	70	27.4	0	3	248	0.00	30.333 
11:30	36.5	36.5	36.5	70	27.7	0	1	248	0.00	30.333 
11:35	36.8	36.8	36.8	70	27.9	0	2	248	0.00	30.333 
11:40	36.9	36.9	36.9	69	27.7	0	3	248	0.00	30.333 
11:45	37.0	37.0	37.0	69	27.8	0	4	248	0.00	30.328 
11:50	37.3	37.3	37.3	69	28.1	0	1	248	0.00	30.328 
11:55	37.6	37.6	37.6	69	28.4	0	2	248	0.00	30.328 
12:00	37.9	37.9	37.9	68	28.3	1	3	248	0.00	30.317 
12:05	38.0	38.0	38.0	67	28.0	0	2	248	0.00	30.317 
12:10	38.0	38.0	38.0	67	28.0	0	4	248	0.00	30.317 
12:15	38.0	38.0	38.0	66	27.7	1	5	248	0.00	30.315 
12:20	38.0	38.0	38.0	67	28.0	1	3	248	0.00	30.315 
12:25	38.3	38.3	38.3	67	28.3	1	4	248	0.00	30.315 
12:30	38.5	38.5	38.5	67	28.5	1	4	248	0.00	30.304 
12:35	38.6	38.6	38.6	66	28.2	1	7	248	0.00	30.304 
12:40	38.8	38.8	38.8	66	28.4	1	4	248	0.00	30.304 
12:45	38.9	38.9	38.9	66	28.5	0	4	248	0.00	30.298 
12:50	39.2	39.2	39.2	65	28.4	1	3	248	0.00	30.298 
12:55	39.1	39.1	39.1	65	28.3	1	4	248	0.00	30.298 
13:00	39.2	39.2	39.2	65	28.4	0	2	248	0.00	30.292 
13:05	39.5	39.5	39.5	64	28.3	1	3	248	0.00	30.292 
13:10	39.8	39.8	39.8	64	28.6	1	3	248	0.00	30.292 
13:15	40.1	40.1	40.1	64	28.9	1	3	248	0.00	30.283 
13:20	40.3	40.3	40.3	63	28.7	1	3	248	0.00	30.283 
13:25	40.6	40.6	40.6	62	28.6	1	4	248	0.00	30.283 
13:30	40.8	40.8	40.8	62	28.8	1	4	248	0.00	30.270 
13:35	40.9	40.9	40.9	62	28.9	1	3	248	0.00	30.270 
13:40	41.2	41.2	41.2	62	29.2	1	3	248	0.00	30.270 
13:45	41.5	41.5	41.5	63	29.9	0	2	248	0.00	30.264 
13:50	41.8	41.8	41.8	61	29.4	1	5	248	0.00	30.264 
13:55	41.8	41.8	41.8	62	29.7	1	4	248	0.00	30.264 
14:00	41.6	41.6	41.6	62	29.6	1	5	248	0.01	30.256 
14:05	41.8	41.8	41.8	62	29.7	1	3	248	0.00	30.256 
14:10	41.9	41.9	41.9	61	29.4	2	5	248	0.00	30.256 
14:15	42.1	42.1	42.1	62	30.0	1	4	248	0.00	30.256 
14:20	42.2	42.2	42.2	60	29.3	1	5	248	0.00	30.256 
14:25	42.1	42.1	42.1	61	29.6	2	4	270	0.00	30.256 
14:30	41.9	41.9	41.9	61	29.4	1	4	248	0.00	30.249 
14:35	41.9	41.9	41.9	61	29.4	1	5	248	0.00	30.249 
14:40	42.3	42.3	42.3	62	30.2	1	3	248	0.00	30.249 
14:45	42.5	42.5	42.5	61	30.0	1	4	248	0.00	30.248 
14:50	42.5	42.5	42.5	60	29.6	2	6	248	0.00	30.248 
14:55	42.3	42.3	42.3	61	29.8	2	5	248	0.00	30.248 
15:00	42.3	42.3	42.3	61	29.8	1	6	248	0.00	30.247 
15:05	42.3	42.3	42.3	61	29.8	1	4	225	0.00	30.247 
15:10	42.3	42.3	42.3	61	29.8	1	4	270	0.00	30.247 
15:15	42.3	42.3	42.3	61	29.8	1	4	248	0.01	30.240 
15:20	42.3	42.3	42.3	61	29.8	2	4	248	0.00	30.240 
15:25	42.5	42.5	42.5	61	30.0	2	5	248	0.00	30.240 
15:30	42.5	42.5	42.5	61	30.0	1	3	248	0.00	30.234 
15:35	42.9	42.9	42.9	61	30.4	0	4	248	0.00	30.234 
15:40	43.3	43.3	43.3	60	30.4	1	3	248	0.00	30.234 
15:45	43.5	43.5	43.5	59	30.1	1	5	248	0.00	30.235 
15:50	43.3	43.3	43.3	59	29.9	2	5	248	0.00	30.235 
15:55	43.2	43.2	43.2	60	30.3	1	4	248	0.00	30.235 
16:00	42.9	42.9	42.9	60	30.0	1	4	248	0.00	30.238 
16:05	42.6	42.6	42.6	61	30.1	1	5	248	0.00	30.238 
16:10	42.3	42.3	42.3	61	29.8	1	3	248	0.00	30.238 
16:15	42.3	42.3	42.3	62	30.2	0	2	0	0.00	30.238 
16:20	42.2	42.2	42.2	62	30.1	1	6	270	0.00	30.238 
16:25	42.1	42.1	42.1	62	30.0	2	6	248	0.00	30.238 
16:30	41.9	41.9	41.9	62	29.8	1	4	248	0.00	30.236 
16:35	41.8	41.8	41.8	62	29.7	1	4	248	0.00	30.236 
16:40	41.6	41.6	41.6	63	30.0	0	2	248	0.00	30.236 
16:45	41.5	41.5	41.5	64	30.2	1	5	248	0.00	30.235 
16:50	41.3	41.3	41.3	64	30.1	1	4	248	0.00	30.235 
16:55	41.2	41.2	41.2	65	30.3	0	4	248	0.00	30.235 
17:00	40.9	40.9	40.9	65	30.1	0	2	248	0.00	30.233 
17:05	40.6	40.6	40.6	66	30.1	0	2	248	0.00	30.233 
17:10	40.5	40.5	40.5	66	30.0	0	2	248	0.00	30.233 
17:15	40.2	40.2	40.2	67	30.1	0	3	248	0.00	30.230 
17:20	40.1	40.1	40.1	68	30.4	0	2	248	0.00	30.230 
17:25	39.8	39.8	39.8	69	30.5	0	2	248	0.00	30.230 
17:30	39.5	39.5	39.5	69	30.2	0	2	248	0.00	30.233 
17:35	39.3	39.3	39.3	70	30.3	0	1	248	0.00	30.233 
17:40	39.2	39.2	39.2	71	30.6	0	1	248	0.00	30.233 
17:45	39.1	39.1	39.1	71	30.5	0	2	248	0.00	30.233 
17:50	38.9	38.9	38.9	72	30.7	0	1	248	0.00	30.233 
17:55	38.6	38.6	38.6	72	30.4	0	2	248	0.00	30.233 
18:00	38.5	38.5	38.5	73	30.6	0	1	248	0.00	30.230 
18:05	38.2	38.2	38.2	73	30.3	0	1	248	0.00	30.230 
18:10	38.0	38.0	38.0	73	30.1	0	1	248	0.00	30.230 
18:15	37.9	37.9	37.9	74	30.4	0	1	248	0.00	30.230 
18:20	37.8	37.8	37.8	74	30.3	0	1	248	0.00	30.230 
18:25	37.6	37.6	37.6	75	30.4	0	2	248	0.00	30.230 
18:30	37.6	37.6	37.6	75	30.4	0	2	248	0.00	30.225 
18:35	37.6	37.6	37.6	75	30.4	0	1	248	0.00	30.225 
18:40	37.5	37.5	37.5	76	30.6	0	2	248	0.00	30.225 
18:45	37.3	37.3	37.3	76	30.4	0	1	248	0.00	30.223 
18:50	37.2	37.2	37.2	76	30.3	0	1	248	0.00	30.223 
18:55	37.2	37.2	37.2	77	30.7	0	1	248	0.00	30.223 
19:00	37.0	37.0	37.0	77	30.5	0	1	248	0.00	30.226 
19:05	36.9	36.9	36.9	77	30.4	0	3	248	0.00	30.226 
19:10	37.0	37.0	37.0	77	30.5	0	3	248	0.00	30.226 
19:15	37.0	37.0	37.0	77	30.5	0	2	248	0.00	30.233 
19:20	37.0	37.0	37.0	76	30.2	0	2	248	0.00	30.233 
19:25	37.0	37.0	37.0	76	30.2	0	2	248	0.00	30.233 
19:30	36.9	36.9	36.9	76	30.1	0	2	248	0.00	30.235 
19:35	36.8	36.8	36.8	77	30.3	0	1	248	0.00	30.235 
19:40	36.6	36.6	36.6	77	30.1	0	2	248	0.00	30.235 
19:45	36.5	36.5	36.5	77	30.0	0	1	248	0.00	30.229 
19:50	36.3	36.3	36.3	77	29.8	0	1	248	0.00	30.229 
19:55	36.2	36.2	36.2	77	29.7	0	1	248	0.00	30.229 
20:00	36.0	36.0	36.0	77	29.5	0	1	248	0.00	30.228 
20:05	36.0	36.0	36.0	77	29.5	0	1	248	0.00	30.228 
20:10	35.9	35.9	35.9	77	29.4	0	1	248	0.00	30.228 
20:15	35.8	35.8	35.8	78	29.6	0	3	248	0.00	30.226 
20:20	35.8	35.8	35.8	78	29.6	0	2	248	0.00	30.226 
20:25	35.6	35.6	35.6	78	29.4	0	1	248	0.00	30.226 
20:30	35.5	35.5	35.5	78	29.3	0	2	248	0.00	30.214 
20:35	35.5	35.5	35.5	78	29.3	1	3	248	0.00	30.214 
20:40	35.5	35.5	35.5	78	29.3	0	1	248	0.00	30.214 
20:45	35.5	35.5	35.5	78	29.3	0	1	248	0.00	30.210 
20:50	35.3	35.3	35.3	78	29.1	0	2	248	0.00	30.210 
20:55	35.3	35.3	35.3	78	29.1	0	3	248	0.00	30.210 
21:00	35.3	35.3	35.3	78	29.1	0	1	248	0.00	30.204 
21:05	35.5	35.5	35.5	79	29.6	1	4	248	0.00	30.204 
21:10	35.6	35.6	35.6	78	29.4	0	3	248	0.00	30.204 
21:15	35.9	35.9	35.9	78	29.7	1	4	248	0.00	30.193 
21:20	36.2	36.2	36.2	77	29.7	1	3	248	0.00	30.193 
21:25	36.5	36.5	36.5	77	30.0	1	4	248	0.00	30.193 
21:30	36.6	36.6	36.6	76	29.8	0	4	225	0.00	30.190 
21:35	36.6	36.6	36.6	76	29.8	1	3	248	0.00	30.190 
21:40	36.8	36.8	36.8	75	29.6	1	2	248	0.00	30.190 
21:45	36.8	36.8	36.8	75	29.6	1	6	248	0.00	30.194 
21:50	36.9	36.9	36.9	75	29.7	1	5	248	0.00	30.194 
21:55	36.9	36.9	36.9	75	29.7	2	6	248	0.00	30.194 
22:00	37.0	37.0	37.0	74	29.5	1	5	292	0.00	30.190 
22:05	37.0	37.0	37.0	74	29.5	1	4	248	0.00	30.190 
22:10	37.0	37.0	37.0	74	29.5	2	6	248	0.00	30.190 
22:15	37.0	37.0	37.0	74	29.5	1	4	248	0.00	30.183 
22:20	37.0	37.0	37.0	74	29.5	1	4	248	0.00	30.183 
22:25	37.0	37.0	37.0	74	29.5	2	6	248	0.00	30.183 
22:30	37.2	37.2	37.2	74	29.7	2	7	248	0.00	30.175 
22:35	37.2	37.2	37.2	74	29.7	1	5	248	0.00	30.175 
22:40	37.2	37.2	37.2	74	29.7	2	7	248	0.00	30.175 
22:45	37.0	37.0	37.0	74	29.5	1	5	248	0.00	30.175 
22:50	37.0	37.0	37.0	75	29.8	1	6	248	0.00	30.175 
22:55	37.2	37.2	37.2	75	30.0	1	5	248	0.00	30.175 
23:00	37.2	37.2	37.2	75	30.0	1	4	248	0.00	30.172 
23:05	37.2	37.2	37.2	75	30.0	2	6	248	0.00	30.172 
23:10	37.2	37.2	37.2	75	30.0	2	5	248	0.00	30.172 
23:15	37.2	37.2	37.2	75	30.0	2	7	248	0.00	30.170 
23:20	37.2	37.2	37.2	75	30.0	2	4	248	0.00	30.170 
23:25	37.2	37.2	37.2	75	30.0	1	3	248	0.00	30.170 
23:30	37.0	37.0	37.0	76	30.2	1	7	248	0.00	30.164 
23:35	37.0	37.0	37.0	76	30.2	1	6	248	0.00	30.164 
23:40	37.2	37.2	37.2	76	30.3	2	10	248	0.00	30.164 
23:45	37.3	37.3	37.3	75	30.1	2	5	248	0.00	30.156 
23:50	37.3	37.3	37.3	76	30.4	2	9	248	0.00	30.156 
23:55	37.3	37.3	37.3	76	30.4	1	6	248	0.00	30.156 

CoCoRaHS
IN-AL-39
A2 Web Hosting
Creative Commons License
GoDaddy
search engine by freefind advanced

loaded 2018-11-21 00:53:13 • last modified 2010-11-18 10:43:29
Privacy PolicyDisclaimer
• wx.awcolley.com is powered by PmWiki v.2002016 •
• all content (unless otherwise noted) © 2018 A W Colley